createdAt,value
2019-05-30T00:00:34.554Z,99.90
2019-05-30T00:03:04.441Z,99.90
2019-05-30T00:05:34.170Z,99.90
2019-05-30T00:08:04.454Z,99.90
2019-05-30T00:10:34.214Z,99.90
2019-05-30T00:13:05.018Z,99.90
2019-05-30T00:15:34.907Z,99.90
2019-05-30T00:18:04.992Z,99.90
2019-05-30T00:20:34.700Z,99.90
2019-05-30T00:23:04.458Z,99.90
2019-05-30T00:25:34.087Z,99.90
2019-05-30T00:28:05.115Z,99.90
2019-05-30T00:30:35.170Z,99.90
2019-05-30T00:33:07.031Z,99.90
2019-05-30T00:35:36.905Z,99.90
2019-05-30T00:38:06.477Z,99.90
2019-05-30T00:40:36.018Z,99.90
2019-05-30T00:43:06.298Z,99.90
2019-05-30T00:45:36.066Z,99.90
2019-05-30T00:48:06.509Z,99.90
2019-05-30T00:50:36.148Z,99.90
2019-05-30T00:53:06.936Z,99.90
2019-05-30T00:55:36.845Z,99.90
2019-05-30T00:58:07.450Z,99.90
2019-05-30T01:00:43.576Z,99.90
2019-05-30T01:03:08.976Z,99.90
2019-05-30T01:05:38.879Z,99.90
2019-05-30T01:08:08.440Z,99.90
2019-05-30T01:10:38.065Z,99.90
2019-05-30T01:13:07.679Z,99.90
2019-05-30T01:15:37.262Z,99.90
2019-05-30T01:18:07.386Z,99.90
2019-05-30T01:20:37.033Z,99.90
2019-05-30T01:23:07.761Z,99.90
2019-05-30T01:25:37.316Z,99.90
2019-05-30T01:28:07.845Z,99.90
2019-05-30T01:30:37.609Z,99.90
2019-05-30T01:33:08.086Z,99.90
2019-05-30T01:35:37.818Z,99.90
2019-05-30T01:38:08.095Z,99.90
2019-05-30T01:40:37.814Z,99.90
2019-05-30T01:43:08.352Z,99.90
2019-05-30T01:45:37.991Z,99.90
2019-05-30T01:48:08.606Z,99.90
2019-05-30T01:50:38.328Z,99.90
2019-05-30T01:53:08.847Z,99.90
2019-05-30T01:55:38.591Z,99.90
2019-05-30T01:58:09.268Z,99.90
2019-05-30T02:00:41.648Z,99.90
2019-05-30T02:03:11.337Z,99.90
2019-05-30T02:05:40.971Z,99.90
2019-05-30T02:08:10.664Z,99.90
2019-05-30T02:10:40.361Z,99.90
2019-05-30T02:13:10.555Z,99.90
2019-05-30T02:15:40.380Z,99.90
2019-05-30T02:18:10.217Z,99.90
2019-05-30T02:20:40.125Z,99.90
2019-05-30T02:23:11.593Z,99.90
2019-05-30T02:25:41.268Z,99.90
2019-05-30T02:28:10.886Z,99.90
2019-05-30T02:30:40.522Z,99.90
2019-05-30T02:33:12.644Z,99.90
2019-05-30T02:35:41.980Z,99.90
2019-05-30T02:38:11.865Z,99.90
2019-05-30T02:40:41.900Z,99.90
2019-05-30T02:43:12.409Z,99.90
2019-05-30T02:45:42.362Z,99.90
2019-05-30T02:48:12.422Z,99.90
2019-05-30T02:50:43.158Z,99.90
2019-05-30T02:53:13.302Z,99.90
2019-05-30T02:55:45.820Z,99.90
2019-05-30T02:58:15.375Z,99.90
2019-05-30T03:00:45.004Z,99.90
2019-05-30T03:03:15.032Z,99.90
2019-05-30T03:05:44.823Z,99.80
2019-05-30T03:08:14.827Z,99.70
2019-05-30T03:10:44.721Z,99.90
2019-05-30T03:13:14.410Z,99.80
2019-05-30T03:15:44.098Z,99.90
2019-05-30T03:18:14.951Z,99.90
2019-05-30T03:20:45.292Z,99.90
2019-05-30T03:23:15.142Z,99.90
2019-05-30T03:25:44.973Z,99.90
2019-05-30T03:28:15.002Z,99.90
2019-05-30T03:30:46.058Z,99.90
2019-05-30T03:33:36.668Z,99.90
2019-05-30T03:35:48.179Z,99.90
2019-05-30T03:38:17.928Z,99.90
2019-05-30T03:40:47.613Z,99.90
2019-05-30T03:43:17.322Z,99.90
2019-05-30T03:45:47.094Z,99.90
2019-05-30T03:48:18.497Z,99.90
2019-05-30T03:50:51.230Z,99.90
2019-05-30T03:53:21.486Z,99.90
2019-05-30T03:55:55.238Z,99.90
2019-05-30T03:58:44.488Z,99.90
2019-05-30T04:01:26.234Z,99.90
2019-05-30T04:04:06.481Z,99.90
2019-05-30T04:06:39.370Z,99.90
2019-05-30T04:09:14.998Z,99.90
2019-05-30T04:12:04.566Z,99.90
2019-05-30T04:14:37.210Z,99.90
2019-05-30T04:17:08.392Z,99.90
2019-05-30T04:19:37.934Z,99.90
2019-05-30T04:22:09.180Z,99.90
2019-05-30T04:24:38.661Z,99.90
2019-05-30T04:27:09.829Z,99.90
2019-05-30T04:29:39.386Z,99.90
2019-05-30T04:32:10.225Z,99.90
2019-05-30T04:34:39.984Z,99.80
2019-05-30T04:37:10.672Z,99.40
2019-05-30T04:39:40.467Z,99.30
2019-05-30T04:42:11.370Z,99.60
2019-05-30T04:44:41.177Z,99.80
2019-05-30T04:47:12.115Z,99.80
2019-05-30T04:49:41.794Z,99.70
2019-05-30T04:52:15.789Z,99.80
2019-05-30T04:54:42.581Z,99.70
2019-05-30T04:57:14.798Z,99.90
2019-05-30T04:59:44.659Z,99.90
2019-05-30T05:02:16.444Z,99.90
2019-05-30T05:04:47.642Z,99.90
2019-05-30T05:07:17.838Z,99.70
2019-05-30T05:09:47.545Z,99.60
2019-05-30T05:12:18.181Z,99.20
2019-05-30T05:14:47.938Z,99.20
2019-05-30T05:17:18.857Z,98.40
2019-05-30T05:19:48.664Z,98.40
2019-05-30T05:22:19.091Z,98.70
2019-05-30T05:24:48.680Z,98.30
2019-05-30T05:27:19.628Z,97.60
2019-05-30T05:29:49.350Z,97.60
2019-05-30T05:32:18.981Z,97.90
2019-05-30T05:34:51.825Z,97.60
2019-05-30T05:37:20.916Z,97.10
2019-05-30T05:39:50.751Z,97.10
2019-05-30T05:42:20.572Z,96.80
2019-05-30T05:44:50.120Z,96.60
2019-05-30T05:47:20.466Z,96.30
2019-05-30T05:49:50.577Z,96.60
2019-05-30T05:52:20.726Z,96.70
2019-05-30T05:54:50.390Z,96.80
2019-05-30T05:57:20.787Z,96.20
2019-05-30T05:59:50.465Z,96.20
2019-05-30T06:02:21.014Z,96.10
2019-05-30T06:04:50.740Z,96.20
2019-05-30T06:07:20.368Z,95.50
2019-05-30T06:09:49.927Z,95.50
2019-05-30T06:12:19.715Z,95.20
2019-05-30T06:14:50.002Z,95.00
2019-05-30T06:17:21.253Z,95.00
2019-05-30T06:19:52.555Z,95.00
2019-05-30T06:22:22.091Z,94.60
2019-05-30T06:24:51.645Z,94.40
2019-05-30T06:27:21.927Z,94.50
2019-05-30T06:29:51.612Z,94.80
2019-05-30T06:32:22.745Z,94.50
2019-05-30T06:34:52.507Z,94.90
2019-05-30T06:37:23.054Z,94.10
2019-05-30T06:39:52.884Z,94.50
2019-05-30T06:42:23.613Z,94.80
2019-05-30T06:44:53.387Z,95.40
2019-05-30T06:47:24.303Z,95.20
2019-05-30T06:49:54.026Z,95.10
2019-05-30T06:52:23.559Z,94.40
2019-05-30T06:54:53.117Z,94.20
2019-05-30T06:57:23.574Z,93.90
2019-05-30T06:59:53.149Z,93.20
2019-05-30T07:02:24.090Z,92.20
2019-05-30T07:04:54.351Z,90.80
2019-05-30T07:07:25.115Z,90.20
2019-05-30T07:09:54.868Z,90.00
2019-05-30T07:12:26.001Z,90.40
2019-05-30T07:14:55.669Z,90.60
2019-05-30T07:17:25.315Z,90.40
2019-05-30T07:19:54.873Z,89.90
2019-05-30T07:22:25.544Z,89.70
2019-05-30T07:24:56.218Z,87.30
2019-05-30T07:27:26.183Z,87.70
2019-05-30T07:29:55.852Z,87.60
2019-05-30T07:32:26.468Z,85.90
2019-05-30T07:35:06.011Z,86.70
2019-05-30T07:37:28.126Z,84.40
2019-05-30T07:39:57.837Z,84.70
2019-05-30T07:42:28.596Z,83.20
2019-05-30T07:44:58.416Z,81.00
2019-05-30T07:47:28.131Z,82.00
2019-05-30T07:49:57.930Z,82.10
2019-05-30T07:52:28.403Z,80.00
2019-05-30T07:54:58.173Z,79.70
2019-05-30T07:57:28.100Z,78.60
2019-05-30T07:59:57.711Z,77.30
2019-05-30T08:02:27.505Z,80.40
2019-05-30T08:04:57.318Z,78.20
2019-05-30T08:07:26.923Z,78.20
2019-05-30T08:09:56.635Z,77.70
2019-05-30T08:12:26.192Z,77.30
2019-05-30T08:14:55.736Z,78.70
2019-05-30T08:17:27.095Z,78.80
2019-05-30T08:19:57.008Z,78.10
2019-05-30T08:22:27.891Z,76.90
2019-05-30T08:24:58.064Z,76.60
2019-05-30T08:27:28.057Z,78.40
2019-05-30T08:29:57.671Z,77.10
2019-05-30T08:32:28.291Z,78.00
2019-05-30T08:34:58.140Z,77.90
2019-05-30T08:37:28.813Z,79.30
2019-05-30T08:39:58.536Z,76.60
2019-05-30T08:42:29.494Z,75.80
2019-05-30T08:44:59.328Z,76.50
2019-05-30T08:47:29.790Z,76.30
2019-05-30T08:49:59.429Z,74.80
2019-05-30T08:52:30.259Z,74.80
2019-05-30T08:55:00.224Z,73.90
2019-05-30T08:57:30.469Z,72.50
2019-05-30T09:00:00.149Z,74.20
2019-05-30T09:02:29.693Z,73.50
2019-05-30T09:04:59.232Z,73.60
2019-05-30T09:07:31.768Z,72.80
2019-05-30T09:10:01.142Z,73.90
2019-05-30T09:12:30.835Z,73.80
2019-05-30T09:15:00.468Z,72.30
2019-05-30T09:17:30.086Z,70.90
2019-05-30T09:19:59.645Z,71.10
2019-05-30T09:22:29.185Z,72.00
2019-05-30T09:24:58.817Z,72.20
2019-05-30T09:27:28.372Z,70.40
2019-05-30T09:29:57.917Z,68.70
2019-05-30T09:32:27.446Z,67.00
2019-05-30T09:34:57.063Z,66.50
2019-05-30T09:37:26.715Z,68.20
2019-05-30T09:39:56.259Z,65.30
2019-05-30T09:42:25.871Z,66.00
2019-05-30T09:44:55.397Z,66.40
2019-05-30T09:47:24.946Z,64.50
2019-05-30T09:49:54.475Z,64.30
2019-05-30T09:52:24.087Z,63.50
2019-05-30T09:54:53.618Z,65.20
2019-05-30T09:57:23.163Z,64.30
2019-05-30T09:59:52.696Z,64.50
2019-05-30T10:02:22.230Z,64.80
2019-05-30T10:04:52.607Z,64.40
2019-05-30T10:07:22.300Z,65.30
2019-05-30T10:09:53.022Z,68.20
2019-05-30T10:12:22.754Z,69.40
2019-05-30T10:14:52.976Z,68.30
2019-05-30T10:17:22.782Z,65.80
2019-05-30T10:19:53.021Z,64.20
2019-05-30T10:22:22.654Z,63.50
2019-05-30T10:24:53.308Z,62.10
2019-05-30T10:27:23.023Z,61.20
2019-05-30T10:29:53.362Z,61.80
2019-05-30T10:32:23.103Z,59.60
2019-05-30T10:34:53.846Z,61.50
2019-05-30T10:37:23.599Z,60.30
2019-05-30T10:39:57.775Z,58.20
2019-05-30T10:42:24.383Z,56.30
2019-05-30T10:44:54.614Z,56.50
2019-05-30T10:47:24.238Z,54.80
2019-05-30T10:49:53.784Z,54.70
2019-05-30T10:52:23.315Z,53.70
2019-05-30T10:54:53.526Z,55.20
2019-05-30T10:57:23.230Z,54.40
2019-05-30T10:59:52.862Z,54.80
2019-05-30T11:02:22.571Z,52.90
2019-05-30T11:04:53.152Z,54.40
2019-05-30T11:07:31.419Z,57.80
2019-05-30T11:10:26.724Z,58.00
2019-05-30T11:13:04.073Z,58.70
2019-05-30T11:15:39.293Z,58.80
2019-05-30T11:18:08.965Z,59.70
2019-05-30T11:20:38.575Z,59.80
2019-05-30T11:23:08.608Z,61.20
2019-05-30T11:25:38.298Z,60.30
2019-05-30T11:28:08.162Z,60.70
2019-05-30T11:30:37.760Z,61.90
2019-05-30T11:33:08.370Z,64.30
2019-05-30T11:35:37.974Z,61.10
2019-05-30T11:38:08.551Z,60.20
2019-05-30T11:40:38.305Z,63.70
2019-05-30T11:43:07.831Z,63.50
2019-05-30T11:45:37.370Z,65.40
2019-05-30T11:48:06.977Z,65.30
2019-05-30T11:50:36.652Z,65.70
2019-05-30T11:53:06.259Z,65.80
2019-05-30T11:55:35.866Z,65.10
2019-05-30T11:58:05.468Z,64.80
2019-05-30T12:00:35.070Z,65.10
2019-05-30T12:03:05.135Z,65.20
2019-05-30T12:05:34.687Z,66.10
2019-05-30T12:08:04.391Z,66.20
2019-05-30T12:10:34.062Z,67.20
2019-05-30T12:13:03.674Z,65.80
2019-05-30T12:15:33.287Z,66.50
2019-05-30T12:18:02.842Z,66.70
2019-05-30T12:20:32.385Z,66.50
2019-05-30T12:23:02.255Z,65.30
2019-05-30T12:25:32.996Z,65.80
2019-05-30T12:28:04.319Z,65.50
2019-05-30T12:30:33.850Z,64.90
2019-05-30T12:33:03.412Z,65.20
2019-05-30T12:35:33.010Z,65.30
2019-05-30T12:38:05.097Z,66.10
2019-05-30T12:40:33.787Z,63.90
2019-05-30T12:43:05.022Z,63.40
2019-05-30T12:45:34.655Z,62.30
2019-05-30T12:48:04.377Z,61.60
2019-05-30T12:50:33.926Z,60.80
2019-05-30T12:53:03.446Z,61.60
2019-05-30T12:55:32.990Z,60.00
2019-05-30T12:58:02.908Z,61.00
2019-05-30T13:00:35.643Z,60.90
2019-05-30T13:03:05.526Z,59.20
2019-05-30T13:05:35.201Z,58.50
2019-05-30T13:08:17.946Z,58.60
2019-05-30T13:10:36.508Z,59.10
2019-05-30T13:13:06.229Z,59.80
2019-05-30T13:15:35.944Z,60.70
2019-05-30T13:18:05.621Z,61.90
2019-05-30T13:20:35.386Z,61.60
2019-05-30T13:23:05.305Z,64.00
2019-05-30T13:25:34.785Z,63.90
2019-05-30T13:28:07.941Z,65.40
2019-05-30T13:30:35.825Z,64.80
2019-05-30T13:33:06.808Z,64.70
2019-05-30T13:35:36.480Z,65.00
2019-05-30T13:38:07.267Z,64.00
2019-05-30T13:40:37.055Z,64.50
2019-05-30T13:43:07.803Z,63.20
2019-05-30T13:45:38.716Z,63.80
2019-05-30T13:48:08.631Z,62.30
2019-05-30T13:50:38.253Z,62.40
2019-05-30T13:53:09.209Z,62.80
2019-05-30T13:55:38.958Z,62.90
2019-05-30T13:58:09.787Z,62.50
2019-05-30T14:00:40.464Z,62.20
2019-05-30T14:03:10.396Z,62.60
2019-05-30T14:05:40.230Z,61.40
2019-05-30T14:08:15.959Z,61.30
2019-05-30T14:10:41.163Z,60.60
2019-05-30T14:13:12.405Z,62.20
2019-05-30T14:15:41.938Z,60.10
2019-05-30T14:18:11.553Z,58.90
2019-05-30T14:20:41.151Z,59.40
2019-05-30T14:23:11.768Z,59.60
2019-05-30T14:25:41.768Z,60.30
2019-05-30T14:28:12.075Z,60.80
2019-05-30T14:30:42.712Z,61.80
2019-05-30T14:33:12.400Z,61.70
2019-05-30T14:35:41.994Z,62.30
2019-05-30T14:38:12.637Z,61.50
2019-05-30T14:40:42.569Z,59.50
2019-05-30T14:43:13.504Z,59.30
2019-05-30T14:45:43.237Z,58.70
2019-05-30T14:48:12.935Z,58.50
2019-05-30T14:50:42.474Z,58.70
2019-05-30T14:53:13.051Z,59.00
2019-05-30T14:55:42.740Z,59.30
2019-05-30T14:58:13.348Z,59.20
2019-05-30T15:00:43.202Z,59.50
2019-05-30T15:03:15.779Z,58.90
2019-05-30T15:05:43.973Z,58.90
2019-05-30T15:08:13.522Z,58.50
2019-05-30T15:10:43.061Z,58.00
2019-05-30T15:13:13.664Z,57.60
2019-05-30T15:15:43.447Z,57.10
2019-05-30T15:18:13.674Z,57.40
2019-05-30T15:20:43.233Z,58.20
2019-05-30T15:23:13.797Z,59.10
2019-05-30T15:25:43.489Z,65.00
2019-05-30T15:28:14.148Z,68.80
2019-05-30T15:30:43.800Z,71.30
2019-05-30T15:33:14.425Z,72.70
2019-05-30T15:35:44.275Z,72.90
2019-05-30T15:38:15.010Z,71.90
2019-05-30T15:40:44.688Z,71.50
2019-05-30T15:43:15.559Z,71.80
2019-05-30T15:45:45.133Z,72.70
2019-05-30T15:48:14.677Z,73.90
2019-05-30T15:50:44.296Z,75.00
2019-05-30T15:53:14.875Z,76.40
2019-05-30T15:55:44.675Z,77.10
2019-05-30T15:58:15.624Z,78.20
2019-05-30T16:00:45.422Z,78.80
2019-05-30T16:03:16.405Z,79.60
2019-05-30T16:05:46.269Z,81.40
2019-05-30T16:08:16.754Z,82.40
2019-05-30T16:10:46.471Z,82.90
2019-05-30T16:13:16.006Z,82.50
2019-05-30T16:15:45.982Z,82.90
2019-05-30T16:18:15.731Z,83.70
2019-05-30T16:20:45.247Z,83.70
2019-05-30T16:23:14.874Z,83.00
2019-05-30T16:25:44.552Z,82.70
2019-05-30T16:28:14.121Z,83.20
2019-05-30T16:30:43.651Z,83.70
2019-05-30T16:33:13.929Z,84.50
2019-05-30T16:35:44.959Z,84.20
2019-05-30T16:38:14.500Z,83.50
2019-05-30T16:40:45.639Z,83.20
2019-05-30T16:43:16.219Z,82.60
2019-05-30T16:45:45.847Z,82.80
2019-05-30T16:48:16.306Z,82.60
2019-05-30T16:50:46.097Z,82.50
2019-05-30T16:53:16.987Z,82.90
2019-05-30T16:55:46.863Z,83.20
2019-05-30T16:58:17.700Z,84.10
2019-05-30T17:00:47.416Z,83.80
2019-05-30T17:03:17.756Z,82.90
2019-05-30T17:05:47.471Z,80.30
2019-05-30T17:08:18.063Z,79.70
2019-05-30T17:10:47.679Z,77.30
2019-05-30T17:13:19.540Z,76.90
2019-05-30T17:15:48.426Z,76.80
2019-05-30T17:18:18.001Z,75.30
2019-05-30T17:20:48.268Z,74.30
2019-05-30T17:23:18.683Z,74.20
2019-05-30T17:25:48.408Z,76.20
2019-05-30T17:28:18.151Z,77.40
2019-05-30T17:30:48.762Z,77.50
2019-05-30T17:33:21.538Z,77.00
2019-05-30T17:35:49.575Z,77.20
2019-05-30T17:38:20.419Z,77.70
2019-05-30T17:40:50.158Z,77.80
2019-05-30T17:43:20.907Z,77.50
2019-05-30T17:45:50.964Z,78.10
2019-05-30T17:48:21.476Z,78.70
2019-05-30T17:50:53.076Z,77.40
2019-05-30T17:53:23.877Z,75.90
2019-05-30T17:55:53.627Z,75.90
2019-05-30T17:58:23.920Z,77.00
2019-05-30T18:00:56.880Z,78.90
2019-05-30T18:03:24.813Z,80.10
2019-05-30T18:05:54.345Z,81.00
2019-05-30T18:08:24.803Z,82.00
2019-05-30T18:10:54.507Z,83.00
2019-05-30T18:13:25.043Z,83.40
2019-05-30T18:15:54.662Z,84.00
2019-05-30T18:18:25.344Z,82.40
2019-05-30T18:20:55.119Z,82.40
2019-05-30T18:23:25.521Z,81.80
2019-05-30T18:25:55.123Z,81.30
2019-05-30T18:28:25.689Z,80.50
2019-05-30T18:30:55.405Z,79.90
2019-05-30T18:33:26.038Z,79.80
2019-05-30T18:35:56.135Z,80.30
2019-05-30T18:38:26.355Z,80.30
2019-05-30T18:41:10.408Z,79.70
2019-05-30T18:43:27.363Z,80.20
2019-05-30T18:45:56.964Z,80.40
2019-05-30T18:48:27.241Z,80.50
2019-05-30T18:50:56.987Z,81.00
2019-05-30T18:53:26.553Z,82.30
2019-05-30T18:55:56.172Z,82.20
2019-05-30T18:58:26.702Z,82.50
2019-05-30T19:00:56.409Z,82.80
2019-05-30T19:03:26.500Z,83.40
2019-05-30T19:05:56.050Z,82.90
2019-05-30T19:08:25.781Z,83.00
2019-05-30T19:10:55.365Z,82.00
2019-05-30T19:13:24.955Z,81.40
2019-05-30T19:15:54.510Z,81.30
2019-05-30T19:18:25.266Z,80.80
2019-05-30T19:20:55.001Z,80.10
2019-05-30T19:23:25.890Z,79.70
2019-05-30T19:25:57.020Z,79.20
2019-05-30T19:28:26.630Z,77.80
2019-05-30T19:30:57.344Z,77.60
2019-05-30T19:33:26.879Z,77.70
2019-05-30T19:35:56.505Z,77.80
2019-05-30T19:38:27.204Z,77.90
2019-05-30T19:40:56.854Z,78.30
2019-05-30T19:43:27.528Z,78.90
2019-05-30T19:45:57.200Z,79.30
2019-05-30T19:48:28.284Z,79.60
2019-05-30T19:50:59.513Z,79.90
2019-05-30T19:53:30.809Z,80.10
2019-05-30T19:56:00.470Z,80.20
2019-05-30T19:58:31.436Z,80.30
2019-05-30T20:01:01.218Z,79.90
2019-05-30T20:03:38.485Z,80.00
2019-05-30T20:06:02.074Z,79.70
2019-05-30T20:08:46.916Z,80.00
2019-05-30T20:11:02.908Z,80.20
2019-05-30T20:13:33.096Z,80.20
2019-05-30T20:16:02.794Z,79.50
2019-05-30T20:18:33.334Z,79.60
2019-05-30T20:21:03.116Z,79.70
2019-05-30T20:23:45.961Z,79.30
2019-05-30T20:26:04.076Z,79.60
2019-05-30T20:28:34.824Z,79.80
2019-05-30T20:31:04.578Z,80.20
2019-05-30T20:33:36.464Z,80.10
2019-05-30T20:36:06.244Z,80.60
2019-05-30T20:38:36.510Z,79.80
2019-05-30T20:41:06.307Z,79.30
2019-05-30T20:43:36.888Z,79.50
2019-05-30T20:46:22.093Z,79.30
2019-05-30T20:48:40.710Z,79.00
2019-05-30T20:51:20.803Z,78.60
2019-05-30T20:53:41.252Z,78.70
2019-05-30T20:56:10.966Z,79.00
2019-05-30T20:58:41.715Z,79.10
2019-05-30T21:01:11.455Z,79.50
2019-05-30T21:03:41.801Z,79.00
2019-05-30T21:06:12.417Z,77.90
2019-05-30T21:08:43.146Z,78.30
2019-05-30T21:11:13.059Z,78.80
2019-05-30T21:13:44.118Z,79.00
2019-05-30T21:16:15.623Z,79.30
2019-05-30T21:18:46.339Z,79.00
2019-05-30T21:21:15.975Z,78.30
2019-05-30T21:23:46.546Z,77.30
2019-05-30T21:26:16.328Z,77.80
2019-05-30T21:28:45.938Z,77.40
2019-05-30T21:31:15.464Z,77.80
2019-05-30T21:33:46.050Z,77.30
2019-05-30T21:36:15.909Z,77.30
2019-05-30T21:38:46.110Z,78.00
2019-05-30T21:41:15.699Z,77.90
2019-05-30T21:43:45.240Z,77.50
2019-05-30T21:46:14.782Z,76.80
2019-05-30T21:48:44.932Z,76.60
2019-05-30T21:51:14.771Z,77.40
2019-05-30T21:53:45.571Z,76.20
2019-05-30T21:56:15.278Z,75.60
2019-05-30T21:58:46.261Z,77.30
2019-05-30T22:01:23.176Z,77.80
2019-05-30T22:03:52.858Z,76.40
2019-05-30T22:06:22.462Z,77.80
2019-05-30T22:08:52.038Z,78.70
2019-05-30T22:11:32.487Z,79.10
2019-05-30T22:14:02.045Z,79.60
2019-05-30T22:16:31.582Z,79.40
2019-05-30T22:19:01.118Z,80.10
2019-05-30T22:21:30.791Z,80.00
2019-05-30T22:24:00.400Z,80.10
2019-05-30T22:26:30.005Z,80.10
2019-05-30T22:28:59.611Z,80.40
2019-05-30T22:31:29.283Z,81.00
2019-05-30T22:33:58.822Z,81.70
2019-05-30T22:36:29.397Z,81.50
2019-05-30T22:38:58.987Z,81.90
2019-05-30T22:41:28.490Z,82.30
2019-05-30T22:43:58.038Z,82.60
2019-05-30T22:46:27.587Z,81.80
2019-05-30T22:48:57.107Z,81.40
2019-05-30T22:51:27.623Z,81.70
2019-05-30T22:53:57.463Z,81.60
2019-05-30T22:56:27.003Z,82.40
2019-05-30T22:58:56.521Z,82.80
2019-05-30T23:01:26.066Z,83.40
2019-05-30T23:03:55.601Z,83.90
2019-05-30T23:06:25.143Z,84.50
2019-05-30T23:08:54.965Z,86.10
2019-05-30T23:11:25.502Z,85.70
2019-05-30T23:13:56.136Z,86.20
2019-05-30T23:16:26.037Z,85.80
2019-05-30T23:18:56.744Z,86.10
2019-05-30T23:21:26.473Z,87.30
2019-05-30T23:23:57.247Z,88.50
2019-05-30T23:26:26.924Z,88.90
2019-05-30T23:28:58.081Z,89.00
2019-05-30T23:31:28.190Z,88.70
2019-05-30T23:33:58.650Z,89.30
2019-05-30T23:36:28.339Z,90.20
2019-05-30T23:38:58.881Z,90.50
2019-05-30T23:41:28.516Z,90.60
2019-05-30T23:44:10.538Z,91.10
2019-05-30T23:46:29.215Z,91.30
2019-05-30T23:48:59.639Z,91.70
2019-05-30T23:51:29.495Z,91.50
2019-05-30T23:54:00.409Z,91.50
2019-05-30T23:56:30.067Z,91.40
2019-05-30T23:59:01.148Z,91.60
